Time;durP1;ratioP1;P1;durP2;ratioP2;P2;SDS_P1;SDS_P2;PMS_P1;PMS_P2;Temp;Humidity;BMP_temperature;BMP_pressure;BME280_temperature;BME280_humidity;BME280_pressure;Samples;Min_cycle;Max_cycle;Signal;HPM_P1;HPM_P2
2022/12/01 00:00:54;;;;;;;75.60;42.40;;;;;;;0.38;77.56;101535.66;2180834;81;32993;-67
2022/12/01 00:03:56;;;;;;;70.42;40.28;;;;;;;0.40;77.72;101540.08;2181199;81;34350;-67
2022/12/01 00:06:57;;;;;;;73.00;39.63;;;;;;;0.40;77.71;101534.80;2181158;80;27687;-67
2022/12/01 00:13:17;;;;;;;72.20;39.90;;;;;;;0.40;77.67;101535.25;2180503;81;31129;-66
2022/12/01 00:16:19;;;;;;;73.30;40.45;;;;;;;0.41;77.68;101540.98;2180685;81;32953;-68
2022/12/01 00:19:25;;;;;;;69.72;40.85;;;;;;;0.41;77.66;101541.84;2180742;81;29328;-68
2022/12/01 00:22:27;;;;;;;76.65;42.85;;;;;;;0.42;77.68;101539.67;2180787;81;27752;-67
2022/12/01 00:25:28;;;;;;;73.55;39.18;;;;;;;0.43;77.68;101541.44;2176004;81;28642;-67
2022/12/01 00:28:30;;;;;;;78.35;40.67;;;;;;;0.47;77.68;101541.03;2147218;81;31027;-67
2022/12/01 00:31:31;;;;;;;72.47;40.35;;;;;;;0.49;77.63;101539.76;2175595;81;32934;-67
2022/12/01 00:34:32;;;;;;;76.53;43.60;;;;;;;0.52;77.83;101539.34;2175698;81;30124;-68
2022/12/01 00:37:34;;;;;;;77.72;40.23;;;;;;;0.55;77.65;101537.17;2184602;80;27810;-68
2022/12/01 00:40:35;;;;;;;72.53;41.75;;;;;;;0.57;77.56;101537.66;2204937;80;28676;-68
2022/12/01 00:43:38;;;;;;;74.12;40.75;;;;;;;0.56;77.46;101535.89;2204712;80;31065;-70
2022/12/01 00:46:39;;;;;;;64.92;37.85;;;;;;;0.59;77.48;101539.86;2205114;80;32974;-70
2022/12/01 00:49:42;;;;;;;77.12;41.98;;;;;;;0.59;77.39;101528.44;2205161;80;30119;-69
2022/12/01 00:52:43;;;;;;;72.12;39.70;;;;;;;0.62;77.39;101534.17;2205185;80;27702;-68
2022/12/01 00:55:45;;;;;;;69.77;39.25;;;;;;;0.60;77.23;101535.48;2174427;79;28639;-68
2022/12/01 00:58:46;;;;;;;76.50;42.78;;;;;;;0.58;77.30;101535.45;2169259;81;30492;-68
2022/12/01 01:01:48;;;;;;;84.28;43.73;;;;;;;0.59;77.43;101529.31;2169261;81;32944;-67
2022/12/01 01:04:49;;;;;;;71.90;39.92;;;;;;;0.61;77.51;101531.98;2169595;82;29961;-68
2022/12/01 01:07:51;;;;;;;73.83;41.55;;;;;;;0.65;77.38;101534.21;2164228;81;27612;-68
2022/12/01 01:10:52;;;;;;;68.62;34.88;;;;;;;0.65;77.44;101528.52;2132111;83;29597;-68
2022/12/01 01:13:53;;;;;;;65.12;33.53;;;;;;;0.66;77.22;101523.70;2156954;82;31817;-68
2022/12/01 01:16:55;;;;;;;57.30;28.70;;;;;;;0.65;77.10;101520.61;2156917;82;33837;-67
2022/12/01 01:19:56;;;;;;;64.12;33.98;;;;;;;0.64;76.92;101523.20;2157093;82;29337;-67
2022/12/01 01:22:58;;;;;;;62.25;36.25;;;;;;;0.58;76.95;101526.22;2156847;82;27716;-68
2022/12/01 01:26:17;;;;;;;55.73;32.80;;;;;;;0.59;77.12;101527.12;2157573;82;28865;-68
2022/12/01 01:29:18;;;;;;;61.25;33.45;;;;;;;0.56;77.04;101525.34;2156931;82;31019;-68
2022/12/01 01:32:19;;;;;;;62.23;34.15;;;;;;;0.57;77.06;101520.52;2157234;82;32936;-68
2022/12/01 01:35:21;;;;;;;63.13;34.15;;;;;;;0.54;76.97;101516.53;2157074;82;29327;-69
2022/12/01 01:38:22;;;;;;;59.00;32.75;;;;;;;0.53;77.01;101518.70;2158429;82;27609;-67
2022/12/01 01:41:23;;;;;;;60.63;35.13;;;;;;;0.50;76.98;101516.48;2165944;82;28677;-68
2022/12/01 01:44:52;;;;;;;63.98;35.05;;;;;;;0.48;77.00;101503.71;2132108;83;31844;-69
2022/12/01 01:47:55;;;;;;;68.97;37.50;;;;;;;0.50;77.31;101503.30;2156887;81;33147;-68
2022/12/01 01:50:56;;;;;;;64.05;38.23;;;;;;;0.57;77.34;101501.16;2148065;82;29323;-68
2022/12/01 01:54:02;;;;;;;57.80;33.63;;;;;;;0.63;77.37;101502.98;2145524;82;27748;-68
2022/12/01 01:57:07;;;;;;;56.20;33.18;;;;;;;0.63;76.90;101505.61;2156943;82;29542;-69
2022/12/01 02:00:14;;;;;;;66.00;34.65;;;;;;;0.62;76.96;101500.79;2157347;82;31030;-69
2022/12/01 02:03:16;;;;;;;61.63;33.40;;;;;;;0.64;77.06;101495.52;2157120;82;33866;-68
2022/12/01 02:06:17;;;;;;;65.22;35.55;;;;;;;0.67;77.04;101500.38;2157218;82;29331;-69
2022/12/01 02:09:19;;;;;;;69.12;38.17;;;;;;;0.67;77.00;101492.47;2157039;82;27623;-68
2022/12/01 02:13:00;;;;;;;67.50;37.08;;;;;;;0.68;77.04;101495.56;2157192;82;28639;-68
2022/12/01 02:16:22;;;;;;;66.62;36.63;;;;;;;0.70;76.98;101485.05;2157315;82;31037;-68
2022/12/01 02:19:29;;;;;;;58.08;33.55;;;;;;;0.71;77.11;101489.00;2152533;82;32974;-69
2022/12/01 02:23:06;;;;;;;62.70;36.08;;;;;;;0.71;76.96;101489.45;2142451;82;29484;-68
2022/12/01 02:26:31;;;;;;;63.65;34.45;;;;;;;0.70;76.91;101489.00;2138715;83;27663;-68
2022/12/01 02:30:06;;;;;;;68.52;37.55;;;;;;;0.70;76.94;101487.69;2111353;82;32500;-69
2022/12/01 02:33:37;;;;;;;65.62;35.28;;;;;;;0.72;77.10;101491.23;2079885;85;32390;-69
2022/12/01 02:36:53;;;;;;;59.38;34.18;;;;;;;0.74;77.04;101494.77;2138539;83;33773;-70
2022/12/01 02:40:15;;;;;;;62.23;34.35;;;;;;;0.71;76.95;101488.14;2111229;84;29344;-68
2022/12/01 02:43:43;;;;;;;67.12;37.93;;;;;;;0.69;76.97;101484.14;2102524;84;27723;-69
2022/12/01 02:49:56;;;;;;;77.17;39.67;;;;;;;0.70;77.11;101478.45;2108707;81;28232;-65
2022/12/01 02:52:58;;;;;;;69.67;38.40;;;;;;;0.69;77.14;101481.51;2138165;82;33092;-67
2022/12/01 02:55:59;;;;;;;74.17;41.92;;;;;;;0.69;77.08;101478.00;2053685;85;29398;-68
2022/12/01 02:59:00;;;;;;;75.28;40.55;;;;;;;0.67;77.20;101479.28;2133137;83;27604;-67
2022/12/01 03:02:48;;;;;;;67.90;38.38;;;;;;;0.68;77.17;101471.83;2072278;85;28631;-68
2022/12/01 03:06:14;;;;;;;60.20;31.40;;;;;;;0.64;77.00;101471.37;2141759;81;31261;-67
2022/12/01 03:09:47;;;;;;;67.87;36.85;;;;;;;0.57;77.16;101465.15;2134492;83;33714;-67
2022/12/01 03:13:15;;;;;;;65.42;37.08;;;;;;;0.55;77.07;101464.66;2135590;83;29357;-67
2022/12/01 03:16:50;;;;;;;68.33;39.40;;;;;;;0.54;77.27;101468.16;2135773;83;27674;-67
2022/12/01 03:19:59;;;;;;;72.40;37.78;;;;;;;0.51;77.18;101461.12;2135995;81;29472;-68
2022/12/01 03:23:08;;;;;;;76.92;41.18;;;;;;;0.55;77.39;101456.75;2135411;83;31822;-66
2022/12/01 03:26:16;;;;;;;69.25;38.48;;;;;;;0.58;77.42;101458.11;2135322;83;33764;-66
2022/12/01 03:29:38;;;;;;;70.28;39.03;;;;;;;0.57;77.33;101451.06;2135890;83;30107;-67
2022/12/01 03:32:46;;;;;;;71.65;39.25;;;;;;;0.56;77.40;101457.20;2135952;83;27703;-67
2022/12/01 03:36:10;;;;;;;70.65;39.40;;;;;;;0.55;77.43;101453.70;2135812;83;29552;-67
2022/12/01 03:39:17;;;;;;;74.25;39.90;;;;;;;0.55;77.34;101451.06;2135935;83;32867;-66
2022/12/01 03:42:25;;;;;;;83.42;42.88;;;;;;;0.58;77.47;101452.83;2135223;83;33832;-67
2022/12/01 03:45:34;;;;;;;76.97;42.43;;;;;;;0.62;77.53;101453.74;2135839;83;30107;-66
2022/12/01 03:48:37;;;;;;;76.10;41.30;;;;;;;0.62;77.46;101453.33;2135641;83;27784;-67
2022/12/01 03:51:47;;;;;;;74.50;41.98;;;;;;;0.67;77.51;101458.64;2174541;81;28754;-67
2022/12/01 03:55:00;;;;;;;80.70;43.85;;;;;;;0.67;77.38;101461.28;2175292;81;31765;-67
2022/12/01 03:58:10;;;;;;;85.53;45.23;;;;;;;0.70;77.48;101455.59;2174813;81;33736;-67
2022/12/01 04:01:11;;;;;;;84.20;45.23;;;;;;;0.71;77.46;101453.41;2174885;81;30108;-67
2022/12/01 04:04:13;;;;;;;96.63;50.48;;;;;;;0.69;77.37;101448.54;2113660;84;27671;-67
2022/12/01 04:07:15;;;;;;;93.62;48.50;;;;;;;0.71;77.54;101450.77;2149925;82;28496;-66
2022/12/01 04:10:16;;;;;;;100.20;51.02;;;;;;;0.71;77.55;101449.44;2114269;84;31004;-67
2022/12/01 04:13:22;;;;;;;102.22;51.75;;;;;;;0.74;77.54;101461.34;2171865;82;32987;-67
2022/12/01 04:16:23;;;;;;;90.10;48.10;;;;;;;0.74;77.52;101458.71;2108862;84;29289;-67
2022/12/01 04:19:24;;;;;;;85.72;45.55;;;;;;;0.72;77.53;101463.08;2102159;84;27810;-66
2022/12/01 04:22:26;;;;;;;70.65;39.38;;;;;;;0.71;77.56;101465.72;2072170;85;29455;-67
2022/12/01 04:25:27;;;;;;;76.05;42.15;;;;;;;0.69;77.56;101459.55;2072027;85;31096;-67
2022/12/01 04:28:29;;;;;;;78.57;43.20;;;;;;;0.65;77.59;101461.27;2072141;85;32921;-67
2022/12/01 04:31:30;;;;;;;76.87;40.98;;;;;;;0.66;77.77;101461.72;2072012;85;29336;-67
2022/12/01 04:34:32;;;;;;;84.00;45.08;;;;;;;0.65;77.68;101454.68;2072287;85;27721;-66
2022/12/01 04:37:33;;;;;;;77.80;42.05;;;;;;;0.60;77.74;101449.78;2089951;84;28110;-66
2022/12/01 04:40:34;;;;;;;81.20;44.53;;;;;;;0.63;77.82;101458.15;2125595;82;31234;-67
2022/12/01 04:43:40;;;;;;;90.92;44.75;;;;;;;0.65;77.90;101455.09;2127414;82;32963;-67
2022/12/01 04:46:48;;;;;;;93.65;48.23;;;;;;;0.66;77.95;101459.50;2152505;82;29338;-68
2022/12/01 04:49:57;;;;;;;118.53;61.33;;;;;;;0.70;78.08;101464.81;2150219;82;27686;-67
2022/12/01 04:53:03;;;;;;;84.70;45.73;;;;;;;0.78;78.15;101466.66;2126708;83;29743;-66
2022/12/01 04:56:06;;;;;;;89.92;44.80;;;;;;;0.79;78.03;101467.11;2126891;83;30484;-67
2022/12/01 04:59:07;;;;;;;90.12;45.95;;;;;;;0.83;78.06;101475.06;2149620;82;33014;-66
2022/12/01 05:02:09;;;;;;;86.15;45.12;;;;;;;0.88;78.13;101460.59;2144197;83;30083;-64
2022/12/01 05:05:11;;;;;;;83.72;45.92;;;;;;;0.93;78.07;101468.54;2169095;81;27640;-66
2022/12/01 05:08:12;;;;;;;88.10;44.40;;;;;;;0.96;78.05;101464.20;2166512;82;28652;-66
2022/12/01 05:11:14;;;;;;;95.45;49.63;;;;;;;0.99;78.07;101464.23;2151336;82;32137;-66
2022/12/01 05:14:15;;;;;;;87.02;45.08;;;;;;;1.02;77.98;101466.00;2143695;82;32995;-66
2022/12/01 05:17:16;;;;;;;95.15;46.30;;;;;;;1.01;77.88;101470.38;2113812;83;30009;-66
2022/12/01 05:23:41;;;;;;;100.53;51.00;;;;;;;1.03;77.96;101467.77;2113038;83;29540;-66
2022/12/01 05:26:43;;;;;;;91.37;48.70;;;;;;;1.07;78.08;101466.94;2122305;82;31014;-66
2022/12/01 05:29:45;;;;;;;96.90;52.45;;;;;;;1.06;77.97;101471.31;2168795;82;32967;-66
2022/12/01 05:32:46;;;;;;;100.15;54.38;;;;;;;1.08;77.94;101463.84;2168299;82;29324;-65
2022/12/01 05:35:48;;;;;;;92.60;47.75;;;;;;;1.08;77.96;101466.48;2163502;82;27892;-65
2022/12/01 05:38:49;;;;;;;90.97;48.10;;;;;;;1.05;77.98;101462.95;2158360;82;28677;-65
2022/12/01 05:41:51;;;;;;;90.57;48.70;;;;;;;1.11;78.05;101462.56;2159739;82;31623;-66
2022/12/01 05:44:52;;;;;;;91.05;47.62;;;;;;;1.16;78.20;101463.48;2159494;82;32983;-65
2022/12/01 05:47:58;;;;;;;89.55;49.15;;;;;;;1.22;78.23;101458.23;2158542;82;30007;-65
2022/12/01 05:51:10;;;;;;;93.60;46.70;;;;;;;1.26;78.17;101456.08;2158059;82;27720;-65
2022/12/01 05:54:11;;;;;;;96.35;49.38;;;;;;;1.30;78.14;101462.25;2157184;82;28711;-66
2022/12/01 05:57:12;;;;;;;106.50;55.12;;;;;;;;;;2157999;82;31249;-66
2022/12/01 06:00:15;;;;;;;104.67;53.43;;;;;;;1.35;77.97;101465.38;2158375;82;33904;-65
2022/12/01 06:03:17;;;;;;;108.17;56.95;;;;;;;1.37;77.87;101469.36;2160458;82;30134;-65
2022/12/01 06:06:18;;;;;;;97.53;50.58;;;;;;;1.33;77.83;101467.11;2169202;81;27751;-66
2022/12/01 06:09:19;;;;;;;95.42;48.28;;;;;;;1.33;77.90;101476.35;2168926;81;28808;-65
2022/12/01 06:12:20;;;;;;;90.12;47.75;;;;;;;1.32;77.83;101468.44;2171596;81;31010;-66
2022/12/01 06:15:21;;;;;;;89.60;48.50;;;;;;;1.33;77.98;101475.48;2167817;82;33036;-66
2022/12/01 06:18:25;;;;;;;91.85;45.25;;;;;;;1.34;77.96;101475.94;2174299;81;29342;-66
2022/12/01 06:21:26;;;;;;;86.63;46.37;;;;;;;1.35;77.92;101474.61;2116064;84;27679;-65
2022/12/01 06:24:27;;;;;;;80.77;45.92;;;;;;;1.35;77.91;101480.34;2150454;82;28649;-65
2022/12/01 06:27:28;;;;;;;93.52;51.00;;;;;;;1.34;77.90;101474.61;2169669;81;31835;-65
2022/12/01 06:30:30;;;;;;;85.65;46.63;;;;;;;1.30;77.86;101476.36;2167780;82;33038;-66
2022/12/01 06:33:31;;;;;;;82.25;45.92;;;;;;;1.29;77.90;101475.91;2168398;81;30084;-64
2022/12/01 06:36:32;;;;;;;85.77;48.42;;;;;;;1.27;77.93;101469.73;2167876;82;27713;-65
2022/12/01 06:39:34;;;;;;;95.32;51.53;;;;;;;1.29;78.03;101465.34;2168557;82;29639;-64
2022/12/01 06:42:35;;;;;;;88.58;49.90;;;;;;;1.33;78.01;101471.52;2113456;84;30998;-65
2022/12/01 06:45:36;;;;;;;89.75;49.18;;;;;;;1.30;77.92;101471.50;2128737;83;33725;-65
2022/12/01 06:48:37;;;;;;;95.15;49.73;;;;;;;1.30;77.92;101479.00;2127919;83;29339;-66
2022/12/01 06:51:39;;;;;;;103.50;54.15;;;;;;;1.31;78.04;101479.86;2148312;82;28330;-66
2022/12/01 06:54:40;;;;;;;96.25;49.45;;;;;;;1.35;78.13;101476.38;2181454;81;28700;-66
2022/12/01 06:57:42;;;;;;;99.92;54.95;;;;;;;1.39;78.15;101470.68;2123649;82;31066;-66
2022/12/01 07:00:43;;;;;;;85.28;46.83;;;;;;;1.40;78.06;101473.35;2105932;84;33030;-65
2022/12/01 07:03:49;;;;;;;84.52;43.38;;;;;;;1.42;78.12;101468.94;2129248;82;30092;-65
2022/12/01 07:06:50;;;;;;;84.47;43.68;;;;;;;1.43;77.96;101475.98;2145480;82;27778;-67
2022/12/01 07:09:51;;;;;;;77.60;44.25;;;;;;;1.44;78.06;101475.12;2155182;82;28701;-66
2022/12/01 07:12:56;;;;;;;81.97;44.42;;;;;;;1.42;77.94;101473.35;2159158;82;31078;-65
2022/12/01 07:15:57;;;;;;;80.42;43.70;;;;;;;1.41;78.05;101483.46;2159628;82;33789;-66
2022/12/01 07:18:58;;;;;;;81.65;41.80;;;;;;;1.47;78.23;101482.20;2159569;82;29308;-65
2022/12/01 07:22:00;;;;;;;80.05;41.58;;;;;;;1.50;78.15;101485.73;2159508;82;28250;-65
2022/12/01 07:25:01;;;;;;;79.00;45.45;;;;;;;;;;2159541;82;28632;-65
2022/12/01 07:28:03;;;;;;;81.97;48.92;;;;;;;1.56;78.00;101492.81;2159567;82;35335;-65
2022/12/01 07:31:14;;;;;;;93.15;51.00;;;;;;;1.56;78.06;101491.94;2159598;82;32963;-65
2022/12/01 07:34:15;;;;;;;89.17;48.10;;;;;;;1.59;78.02;101485.33;2159747;82;29475;-66
2022/12/01 07:37:16;;;;;;;95.97;50.08;;;;;;;1.61;78.03;101493.73;2159671;82;27627;-65
2022/12/01 07:40:18;;;;;;;84.65;44.38;;;;;;;1.64;78.09;101490.22;2159617;82;29544;-64
2022/12/01 07:43:19;;;;;;;86.20;44.45;;;;;;;1.69;78.08;101493.78;2159610;82;31247;-67
2022/12/01 07:46:23;;;;;;;83.75;47.55;;;;;;;1.76;78.18;101497.34;2159922;82;33988;-66
2022/12/01 07:49:25;;;;;;;89.10;44.93;;;;;;;1.80;77.95;101497.82;2162784;81;30482;-65
2022/12/01 07:52:26;;;;;;;89.15;51.30;;;;;;;1.82;77.93;101501.36;2152580;82;27621;-66
2022/12/01 07:55:27;;;;;;;74.65;41.92;;;;;;;1.84;77.93;101495.62;2152455;82;29533;-65
2022/12/01 07:58:29;;;;;;;78.60;45.98;;;;;;;1.84;77.81;101501.36;2152591;82;30988;-65
2022/12/01 08:01:31;;;;;;;77.70;41.42;;;;;;;1.86;77.80;101511.50;2125481;82;33778;-66
2022/12/01 08:04:32;;;;;;;73.40;41.00;;;;;;;1.90;77.87;101502.27;2114160;84;30252;-65
2022/12/01 08:07:34;;;;;;;77.17;42.65;;;;;;;1.96;77.94;101505.38;2114636;82;27689;-66
2022/12/01 08:10:35;;;;;;;71.47;39.50;;;;;;;2.03;78.01;101500.59;2114180;84;29699;-64
2022/12/01 08:13:37;;;;;;;79.55;42.70;;;;;;;2.07;77.61;101499.70;2114133;84;31914;-65
2022/12/01 08:16:39;;;;;;;86.78;48.55;;;;;;;2.06;77.58;101499.70;2114147;84;33800;-65
2022/12/01 08:19:40;;;;;;;75.78;42.03;;;;;;;2.06;77.54;101501.93;2114270;84;29328;-65
2022/12/01 08:22:41;;;;;;;75.12;41.25;;;;;;;2.09;77.55;101496.63;2114411;84;27820;-63
2022/12/01 08:25:42;;;;;;;74.17;40.92;;;;;;;2.10;77.42;101502.82;2114323;84;28660;-64
2022/12/01 08:28:44;;;;;;;77.78;43.25;;;;;;;2.12;77.36;101501.94;2114165;84;31838;-64
2022/12/01 08:31:45;;;;;;;85.45;47.43;;;;;;;2.12;77.48;101499.30;2148364;82;32987;-63
2022/12/01 08:34:47;;;;;;;88.37;47.78;;;;;;;2.18;77.60;101493.15;2152578;82;29325;-64
2022/12/01 08:37:51;;;;;;;76.70;46.90;;;;;;;2.25;77.48;101496.70;2152520;82;27824;-64
2022/12/01 08:40:55;;;;;;;74.12;41.92;;;;;;;2.27;77.40;101498.50;2152673;82;29479;-64
2022/12/01 08:43:58;;;;;;;137.90;87.85;;;;;;;2.28;77.40;101496.30;2152370;82;31154;-64
2022/12/01 08:46:59;;;;;;;110.50;63.73;;;;;;;2.28;77.22;101496.30;2152493;82;32986;-65
2022/12/01 08:50:03;;;;;;;86.55;51.13;;;;;;;2.30;77.43;101500.26;2151572;82;29492;-65
2022/12/01 08:53:04;;;;;;;72.12;40.30;;;;;;;2.33;77.31;101501.59;2126797;83;27719;-66
2022/12/01 08:56:16;;;;;;;72.85;39.30;;;;;;;2.33;77.29;101500.28;2149874;82;28733;-65
2022/12/01 08:59:17;;;;;;;70.70;42.38;;;;;;;2.35;77.32;101502.48;2144666;82;31856;-64
2022/12/01 09:02:21;;;;;;;84.25;47.05;;;;;;;2.39;77.32;101503.38;2136291;82;32928;-64
2022/12/01 09:05:28;;;;;;;72.20;41.28;;;;;;;2.41;77.15;101502.95;2112385;82;27681;-65
2022/12/01 09:08:32;;;;;;;84.20;44.27;;;;;;;2.44;77.19;101505.61;2163696;80;27655;-65
2022/12/01 09:11:34;;;;;;;84.55;47.40;;;;;;;2.47;77.23;101508.69;2158479;82;28667;-65
2022/12/01 09:14:38;;;;;;;78.78;44.18;;;;;;;2.49;77.05;101509.13;2158361;82;30998;-65
2022/12/01 09:17:40;;;;;;;85.90;48.45;;;;;;;2.47;76.86;101504.72;2158344;82;33970;-64
2022/12/01 09:20:41;;;;;;;87.53;50.17;;;;;;;2.48;76.97;101498.56;2158421;82;29305;-65
2022/12/01 09:23:42;;;;;;;87.95;51.73;;;;;;;2.47;76.94;101500.34;2158543;82;27686;-64
2022/12/01 09:26:44;;;;;;;73.50;40.60;;;;;;;2.51;77.14;101495.48;2137231;82;28696;-65
2022/12/01 09:29:45;;;;;;;69.62;40.10;;;;;;;2.54;76.93;101496.81;2153197;82;31069;-64
2022/12/01 09:32:46;;;;;;;75.55;43.60;;;;;;;2.53;76.74;101499.02;2130010;83;32939;-64
2022/12/01 09:35:47;;;;;;;83.65;46.20;;;;;;;2.55;76.74;101499.03;2130220;83;29343;-65
2022/12/01 09:38:49;;;;;;;72.40;43.00;;;;;;;2.56;76.88;101491.09;2130101;83;27705;-65
2022/12/01 09:42:03;;;;;;;80.40;40.17;;;;;;;2.63;76.98;101492.44;2129887;83;28799;-64
2022/12/01 09:45:05;;;;;;;68.47;37.60;;;;;;;2.63;76.70;101486.70;2129966;83;31835;-65
2022/12/01 09:48:10;;;;;;;64.03;38.58;;;;;;;2.64;76.61;101482.31;2130005;83;33079;-65
2022/12/01 09:51:22;;;;;;;66.60;39.85;;;;;;;2.65;76.65;101484.94;2131428;83;30117;-65
2022/12/01 09:54:23;;;;;;;66.00;39.30;;;;;;;2.70;76.77;101475.69;2132926;83;27610;-64
2022/12/01 09:57:30;;;;;;;57.95;35.98;;;;;;;2.74;76.80;101474.81;2132530;83;29564;-65
2022/12/01 10:00:38;;;;;;;64.92;36.77;;;;;;;2.80;76.65;101476.16;2146072;82;31012;-64
2022/12/01 10:03:51;;;;;;;66.50;38.33;;;;;;;2.81;76.50;101472.64;2122752;83;33041;-65
2022/12/01 10:07:06;;;;;;;62.95;36.30;;;;;;;2.87;76.73;101477.05;2132672;83;31107;-65
2022/12/01 10:10:30;;;;;;;64.85;37.23;;;;;;;2.86;76.30;101476.16;2122626;82;27717;-64
2022/12/01 10:13:32;;;;;;;78.72;48.90;;;;;;;2.87;76.43;101465.14;2124576;83;29457;-65
2022/12/01 10:16:44;;;;;;;65.30;34.73;;;;;;;2.89;76.30;101464.71;2087277;85;31017;-65
2022/12/01 10:19:57;;;;;;;68.95;38.67;;;;;;;2.88;76.11;101472.20;2118105;83;33011;-65
2022/12/01 10:23:46;;;;;;;69.17;32.55;;;;;;;2.88;76.22;101462.94;2124406;83;29325;-65
2022/12/01 10:27:17;;;;;;;60.05;36.15;;;;;;;2.87;76.06;101462.50;2089245;85;27592;-65
2022/12/01 10:30:22;;;;;;;59.60;35.95;;;;;;;2.89;76.37;101460.28;2094470;83;28710;-66
2022/12/01 10:33:27;;;;;;;57.45;35.48;;;;;;;2.97;76.42;101457.64;2124545;83;31802;-64
2022/12/01 10:36:30;;;;;;;56.83;35.28;;;;;;;3.01;76.31;101457.19;2124674;83;32947;-64
2022/12/01 10:39:42;;;;;;;57.17;33.98;;;;;;;2.99;76.01;101450.59;2122497;83;29330;-65
2022/12/01 10:42:47;;;;;;;56.85;32.93;;;;;;;3.02;76.13;101453.24;2124840;83;27690;-66
2022/12/01 10:45:48;;;;;;;57.25;32.83;;;;;;;3.04;75.91;101448.84;2124874;83;28700;-66
2022/12/01 10:48:59;;;;;;;50.95;29.57;;;;;;;3.02;75.82;101450.59;2124416;83;30458;-67
2022/12/01 10:52:00;;;;;;;61.37;32.88;;;;;;;3.06;75.87;101443.98;2144286;82;32357;-66
2022/12/01 10:55:27;;;;;;;48.73;30.23;;;;;;;3.04;75.95;101438.24;2152404;82;30169;-65
2022/12/01 10:58:41;;;;;;;49.60;32.03;;;;;;;3.10;75.82;101447.05;2150270;82;27706;-65
2022/12/01 11:01:46;;;;;;;51.75;32.00;;;;;;;3.10;75.63;101443.97;2041755;87;28216;-66
2022/12/01 11:04:59;;;;;;;62.35;40.60;;;;;;;3.05;75.43;101443.08;2081595;84;31420;-64
2022/12/01 11:08:00;;;;;;;64.82;37.48;;;;;;;2.99;75.23;101438.67;2083745;84;33179;-67
2022/12/01 11:11:02;;;;;;;55.52;32.33;;;;;;;3.00;75.61;101438.22;2042429;85;30641;-65
2022/12/01 11:14:22;;;;;;;60.30;38.35;;;;;;;3.01;75.54;101438.23;2065708;85;27831;-66
2022/12/01 11:17:38;;;;;;;59.15;32.93;;;;;;;3.04;75.77;101432.05;1994819;88;28730;-66
2022/12/01 11:20:40;;;;;;;60.17;37.28;;;;;;;3.03;75.64;101432.93;2031880;87;31256;-66
2022/12/01 11:23:46;;;;;;;65.00;38.33;;;;;;;3.03;75.53;101430.28;2074446;85;33722;-67
2022/12/01 11:26:47;;;;;;;56.25;33.40;;;;;;;2.99;75.35;101433.38;2072292;85;30187;-67
2022/12/01 11:30:03;;;;;;;66.92;39.23;;;;;;;2.99;75.62;101428.51;2078481;85;27782;-67
2022/12/01 11:33:05;;;;;;;67.12;37.78;;;;;;;2.98;75.65;101432.94;2073744;85;28507;-68
2022/12/01 11:36:08;;;;;;;68.12;37.93;;;;;;;3.02;75.76;101428.09;2058605;85;32089;-67
2022/12/01 11:39:34;;;;;;;67.78;41.70;;;;;;;3.05;75.73;101431.17;2057672;86;33766;-68
2022/12/01 11:42:36;;;;;;;69.65;42.50;;;;;;;3.07;75.82;101432.48;2057421;86;30429;-68
2022/12/01 11:45:39;;;;;;;58.33;35.63;;;;;;;3.04;75.77;101425.01;1997959;89;27655;-66
2022/12/01 11:48:42;;;;;;;68.02;39.58;;;;;;;3.08;75.73;101427.63;2010672;88;28844;-67
2022/12/01 11:51:44;;;;;;;51.45;31.07;;;;;;;3.11;75.88;101422.34;1995417;87;31150;-67
2022/12/01 11:55:11;;;;;;;54.73;33.50;;;;;;;3.12;75.55;101422.78;2052951;86;32995;-67
2022/12/01 11:58:13;;;;;;;54.38;33.98;;;;;;;3.13;75.72;101424.13;2071853;84;30477;-67
2022/12/01 12:02:05;;;;;;;71.55;43.75;;;;;;;3.13;75.56;101420.15;2047045;87;27687;-67
2022/12/01 12:05:39;;;;;;;57.90;32.15;;;;;;;3.12;75.58;101429.40;2069441;85;29612;-66
2022/12/01 12:09:03;;;;;;;53.40;31.82;;;;;;;3.10;75.50;101417.50;2086452;85;31982;-67
2022/12/01 12:12:28;;;;;;;58.50;32.55;;;;;;;3.08;75.37;101425.88;2086411;85;33723;-67
2022/12/01 12:16:09;;;;;;;42.13;25.90;;;;;;;3.07;75.57;101421.89;2095765;84;36720;-65
2022/12/01 12:19:30;;;;;;;51.83;28.55;;;;;;;3.08;75.09;101417.04;2095182;84;27730;-66
2022/12/01 12:22:49;;;;;;;52.13;31.30;;;;;;;3.01;74.91;101420.13;2094891;84;28704;-66
2022/12/01 12:26:19;;;;;;;42.95;26.35;;;;;;;2.96;75.04;101417.95;2062958;84;31050;-66
2022/12/01 12:29:47;;;;;;;47.43;27.77;;;;;;;2.94;74.89;101415.73;2056524;86;30150;-67
2022/12/01 12:32:54;;;;;;;45.23;28.57;;;;;;;2.93;75.16;101418.81;2059456;84;29327;-64
2022/12/01 12:36:39;;;;;;;48.05;28.83;;;;;;;2.92;75.05;101415.72;2058269;86;27699;-67
2022/12/01 12:40:17;;;;;;;49.63;29.48;;;;;;;2.94;75.08;101420.58;2059287;86;28688;-68
2022/12/01 12:43:36;;;;;;;45.00;27.15;;;;;;;2.92;75.06;101417.50;2059072;84;31057;-68
2022/12/01 12:46:43;;;;;;;47.10;26.35;;;;;;;2.90;74.85;101414.83;2059306;86;32959;-69
2022/12/01 12:50:11;;;;;;;46.50;29.48;;;;;;;2.89;74.84;101417.07;2060783;85;29350;-66
2022/12/01 12:53:18;;;;;;;41.15;26.37;;;;;;;2.89;75.01;101411.78;2132782;81;28250;-65
2022/12/01 12:56:22;;;;;;;46.30;27.05;;;;;;;2.89;74.86;101410.00;2076924;85;29545;-67
2022/12/01 12:59:32;;;;;;;47.17;27.98;;;;;;;2.86;74.68;101409.13;2114384;84;35279;-67
2022/12/01 13:02:39;;;;;;;48.02;27.93;;;;;;;2.85;74.85;101417.48;2116376;82;32979;-67
2022/12/01 13:05:52;;;;;;;46.25;27.50;;;;;;;2.85;74.84;101419.27;2114430;84;29329;-67
2022/12/01 13:09:17;;;;;;;51.05;30.43;;;;;;;2.85;74.81;101428.53;2114317;84;27624;-65
2022/12/01 13:12:35;;;;;;;39.00;24.18;;;;;;;2.83;74.76;101431.61;2129299;82;28661;-65
2022/12/01 13:15:37;;;;;;;38.50;24.25;;;;;;;2.79;74.69;101434.70;2152533;82;31123;-68
2022/12/01 13:19:04;;;;;;;37.00;22.15;;;;;;;2.77;74.56;101425.88;2114201;84;32950;-67
2022/12/01 13:22:07;;;;;;;33.73;21.80;;;;;;;2.78;74.51;101430.71;2171796;82;29029;-67
2022/12/01 13:25:13;;;;;;;28.73;18.87;;;;;;;2.73;74.38;101428.06;2150068;82;27722;-67
2022/12/01 13:28:26;;;;;;;27.42;17.62;;;;;;;2.69;74.07;101424.97;2151729;81;28712;-66
2022/12/01 13:31:27;;;;;;;27.35;19.12;;;;;;;2.67;74.26;101430.70;2174507;81;33066;-66
2022/12/01 13:34:37;;;;;;;25.08;17.50;;;;;;;2.66;74.27;101427.18;2174956;81;33793;-67
2022/12/01 13:37:39;;;;;;;32.53;21.45;;;;;;;2.67;74.03;101429.38;2174851;81;30120;-66
2022/12/01 13:40:40;;;;;;;32.58;19.17;;;;;;;2.63;74.34;101428.50;2174982;81;27649;-66
2022/12/01 13:44:05;;;;;;;27.40;18.45;;;;;;;2.63;74.22;101426.30;2174823;81;28614;-66
2022/12/01 13:47:15;;;;;;;27.55;18.92;;;;;;;2.59;74.05;101429.36;2173431;81;31041;-66
2022/12/01 13:50:44;;;;;;;28.80;17.35;;;;;;;2.58;74.21;101436.43;2174892;81;32964;-65
2022/12/01 13:54:03;;;;;;;28.98;19.00;;;;;;;2.57;73.93;101435.09;2159462;81;30023;-67
2022/12/01 13:57:11;;;;;;;26.02;17.20;;;;;;;2.54;74.14;101439.08;2158333;82;27713;-66
2022/12/01 14:00:31;;;;;;;32.63;19.87;;;;;;;2.51;74.12;101435.09;2106097;84;28648;-66
2022/12/01 14:03:39;;;;;;;28.32;19.07;;;;;;;2.50;74.29;101440.80;2132096;82;31035;-66
2022/12/01 14:06:48;;;;;;;32.50;19.73;;;;;;;2.49;74.39;101432.88;2131764;83;33749;-65
2022/12/01 14:09:56;;;;;;;34.88;22.25;;;;;;;2.51;74.38;101434.64;2106312;84;29341;-66
2022/12/01 14:13:03;;;;;;;32.00;20.70;;;;;;;2.54;74.58;101436.43;2103411;84;27639;-65
2022/12/01 14:16:05;;;;;;;32.38;20.30;;;;;;;2.55;74.58;101438.20;2143837;83;28802;-66
2022/12/01 14:19:12;;;;;;;32.40;21.25;;;;;;;2.55;74.60;101424.52;2159768;82;31036;-65
2022/12/01 14:22:38;;;;;;;29.00;19.92;;;;;;;2.56;74.75;101426.73;2157424;82;33019;-66
2022/12/01 14:25:48;;;;;;;28.55;20.32;;;;;;;2.56;74.70;101426.73;2058482;85;29399;-67
2022/12/01 14:29:03;;;;;;;41.88;25.00;;;;;;;2.55;74.68;101428.48;2057189;86;27673;-67
2022/12/01 14:35:38;;;;;;;38.48;24.45;;;;;;;2.57;74.82;101424.50;1933423;90;28440;-67